Time;durP1;ratioP1;P1;durP2;ratioP2;P2;SDS_P1;SDS_P2;PMS_P1;PMS_P2;Temp;Humidity;BMP_temperature;BMP_pressure;BME280_temperature;BME280_humidity;BME280_pressure;Samples;Min_cycle;Max_cycle;Signal;HPM_P1;HPM_P2
2023/05/06 00:01:33;;;;;;;;;;;9.90;99.90;;;;;;5076756;28;19935;-77
2023/05/06 00:03:59;;;;;;;;;;;9.90;99.90;;;;;;5054602;28;19925;-76
2023/05/06 00:06:26;;;;;;;;;;;9.90;99.90;;;;;;5075492;28;20030;-77
2023/05/06 00:08:51;;;;;;;;;;;9.90;99.90;;;;;;5062591;28;19947;-77
2023/05/06 00:11:17;;;;;;;;;;;9.80;99.90;;;;;;5073257;28;19924;-77
2023/05/06 00:13:42;;;;;;;;;;;9.80;99.90;;;;;;5071918;28;19925;-77
2023/05/06 00:16:08;;;;;;;;;;;9.70;99.90;;;;;;5072266;28;19943;-77
2023/05/06 00:18:34;;;;;;;;;;;9.70;99.90;;;;;;5087727;28;19978;-77
2023/05/06 00:20:59;;;;;;;;;;;9.60;99.90;;;;;;5074106;28;19961;-77
2023/05/06 00:23:25;;;;;;;;;;;9.60;99.90;;;;;;5074478;28;19929;-77
2023/05/06 00:25:52;;;;;;;;;;;9.50;99.90;;;;;;5088234;28;19928;-77
2023/05/06 00:28:17;;;;;;;;;;;9.40;99.90;;;;;;5090385;28;19924;-77
2023/05/06 00:30:43;;;;;;;;;;;9.50;99.90;;;;;;5054409;28;19931;-77
2023/05/06 00:33:08;;;;;;;;;;;9.50;99.90;;;;;;5072645;28;19980;-77
2023/05/06 00:35:34;;;;;;;;;;;9.50;99.90;;;;;;5086723;28;19940;-77
2023/05/06 00:38:07;;;;;;;;;;;9.50;99.90;;;;;;5054795;28;19991;-76
2023/05/06 00:40:32;;;;;;;;;;;9.50;99.90;;;;;;5069390;28;20368;-77
2023/05/06 00:42:58;;;;;;;;;;;9.50;99.90;;;;;;5071290;28;20876;-77
2023/05/06 00:45:24;;;;;;;;;;;9.40;99.90;;;;;;5087603;28;20544;-77
2023/05/06 00:47:50;;;;;;;;;;;9.40;99.90;;;;;;5069525;28;19971;-77
2023/05/06 00:50:15;;;;;;;;;;;9.50;99.90;;;;;;5071451;28;19977;-76
2023/05/06 00:52:41;;;;;;;;;;;9.50;99.90;;;;;;5086200;28;19980;-77
2023/05/06 00:55:07;;;;;;;;;;;9.50;99.90;;;;;;5088775;28;19975;-76
2023/05/06 00:57:33;;;;;;;;;;;9.50;99.90;;;;;;5069251;28;20283;-76
2023/05/06 00:59:58;;;;;;;;;;;9.60;99.90;;;;;;5070908;28;19931;-76
2023/05/06 01:02:24;;;;;;;;;;;9.60;99.90;;;;;;5105252;28;19928;-76
2023/05/06 01:04:50;;;;;;;;;;;9.70;99.90;;;;;;5085501;28;19931;-76
2023/05/06 01:07:30;;;;;;;;;;;9.70;99.90;;;;;;5088183;28;19931;-76
2023/05/06 01:10:12;;;;;;;;;;;9.60;99.90;;;;;;5070187;28;19924;-77
2023/05/06 01:12:54;;;;;;;;;;;9.60;99.90;;;;;;5053234;28;19932;-77
2023/05/06 01:15:24;;;;;;;;;;;9.60;99.90;;;;;;5075057;28;19928;-77
2023/05/06 01:17:52;;;;;;;;;;;9.60;99.90;;;;;;5059885;28;20135;-77
2023/05/06 01:20:20;;;;;;;;;;;9.60;99.90;;;;;;5098160;28;20299;-76
2023/05/06 01:22:48;;;;;;;;;;;9.60;99.90;;;;;;5079509;28;19964;-76
2023/05/06 01:25:20;;;;;;;;;;;9.50;99.90;;;;;;5064383;28;19928;-76
2023/05/06 01:27:46;;;;;;;;;;;9.50;99.90;;;;;;5080640;28;19928;-76
2023/05/06 01:30:12;;;;;;;;;;;9.50;99.90;;;;;;5080971;28;19924;-76
2023/05/06 01:32:57;;;;;;;;;;;9.50;99.90;;;;;;5079997;28;19924;-76
2023/05/06 01:35:44;;;;;;;;;;;9.40;99.90;;;;;;5114229;28;19929;-76
2023/05/06 01:38:28;;;;;;;;;;;9.40;99.90;;;;;;5097925;28;19924;-76
2023/05/06 01:40:55;;;;;;;;;;;9.40;99.90;;;;;;5097705;28;19924;-76
2023/05/06 01:43:22;;;;;;;;;;;9.40;99.90;;;;;;5075127;28;19924;-76
2023/05/06 01:45:52;;;;;;;;;;;9.30;99.90;;;;;;5097947;28;19928;-76
2023/05/06 01:48:37;;;;;;;;;;;9.30;99.90;;;;;;5079876;28;19931;-76
2023/05/06 01:51:03;;;;;;;;;;;9.30;99.90;;;;;;5079903;28;19928;-76
2023/05/06 01:53:29;;;;;;;;;;;9.40;99.90;;;;;;5072617;28;19962;-76
2023/05/06 01:55:54;;;;;;;;;;;9.30;99.90;;;;;;5073854;28;19928;-76
2023/05/06 01:58:20;;;;;;;;;;;9.30;99.90;;;;;;5073979;28;19971;-76
2023/05/06 02:00:45;;;;;;;;;;;9.20;99.90;;;;;;5057918;28;19935;-76
2023/05/06 02:03:11;;;;;;;;;;;9.20;99.90;;;;;;5052395;28;19990;-77
2023/05/06 02:05:36;;;;;;;;;;;9.20;99.90;;;;;;5073495;28;19971;-77
2023/05/06 02:08:02;;;;;;;;;;;9.20;99.90;;;;;;5075059;28;20272;-76
2023/05/06 02:10:28;;;;;;;;;;;9.20;99.90;;;;;;5050718;28;20160;-76
2023/05/06 02:12:53;;;;;;;;;;;9.20;99.90;;;;;;5056243;28;19935;-76
2023/05/06 02:15:19;;;;;;;;;;;9.20;99.90;;;;;;5089349;28;19925;-76
2023/05/06 02:17:45;;;;;;;;;;;9.10;99.90;;;;;;5072451;28;20379;-77
2023/05/06 02:20:10;;;;;;;;;;;9.20;99.90;;;;;;5092123;28;19947;-76
2023/05/06 02:22:36;;;;;;;;;;;9.10;99.90;;;;;;5045973;28;20129;-77
2023/05/06 02:25:02;;;;;;;;;;;9.20;99.90;;;;;;5072260;28;19935;-76
2023/05/06 02:27:28;;;;;;;;;;;9.20;99.90;;;;;;5077493;28;19925;-76
2023/05/06 02:29:54;;;;;;;;;;;9.30;99.90;;;;;;5078384;28;19939;-77
2023/05/06 02:32:19;;;;;;;;;;;9.30;99.90;;;;;;5056923;28;19925;-77
2023/05/06 02:34:45;;;;;;;;;;;9.40;99.90;;;;;;5055012;28;19928;-77
2023/05/06 02:37:10;;;;;;;;;;;9.30;99.90;;;;;;5057958;28;20011;-77
2023/05/06 02:39:36;;;;;;;;;;;9.30;99.90;;;;;;5089408;28;20366;-77
2023/05/06 02:42:02;;;;;;;;;;;9.30;99.90;;;;;;5071659;28;19931;-77
2023/05/06 02:44:28;;;;;;;;;;;9.20;99.90;;;;;;5071801;28;19924;-76
2023/05/06 02:46:53;;;;;;;;;;;9.10;99.90;;;;;;5072455;28;20488;-77
2023/05/06 02:49:19;;;;;;;;;;;9.10;99.90;;;;;;5089488;28;21621;-76
2023/05/06 02:51:44;;;;;;;;;;;9.10;99.90;;;;;;5055837;28;19932;-77
2023/05/06 02:54:10;;;;;;;;;;;9.10;99.90;;;;;;5074138;28;19928;-77
2023/05/06 02:56:36;;;;;;;;;;;9.10;99.90;;;;;;5072931;28;19931;-76
2023/05/06 02:59:02;;;;;;;;;;;9.10;99.90;;;;;;5090582;28;19974;-77
2023/05/06 03:01:27;;;;;;;;;;;9.10;99.90;;;;;;5056509;28;19924;-77
2023/05/06 03:03:53;;;;;;;;;;;9.20;99.90;;;;;;5088806;28;19967;-77
2023/05/06 03:06:18;;;;;;;;;;;9.10;99.90;;;;;;5070925;28;20016;-77
2023/05/06 03:08:44;;;;;;;;;;;9.20;99.90;;;;;;5054518;28;20421;-77
2023/05/06 03:11:09;;;;;;;;;;;9.10;99.90;;;;;;5090476;28;19935;-77
2023/05/06 03:13:35;;;;;;;;;;;9.10;99.90;;;;;;5053275;28;19924;-77
2023/05/06 03:16:01;;;;;;;;;;;9.00;99.90;;;;;;5071345;28;19939;-77
2023/05/06 03:18:26;;;;;;;;;;;9.00;99.90;;;;;;5071202;28;19936;-77
2023/05/06 03:20:52;;;;;;;;;;;9.00;99.90;;;;;;5091149;28;19925;-77
2023/05/06 03:23:17;;;;;;;;;;;9.00;99.90;;;;;;5070717;28;19987;-77
2023/05/06 03:25:43;;;;;;;;;;;9.00;99.90;;;;;;5088319;28;19925;-76
2023/05/06 03:28:09;;;;;;;;;;;9.00;99.90;;;;;;5071544;28;19988;-76
2023/05/06 03:30:35;;;;;;;;;;;8.90;99.90;;;;;;5071377;28;19980;-76
2023/05/06 03:33:00;;;;;;;;;;;8.90;99.90;;;;;;5072520;28;20391;-76
2023/05/06 03:35:26;;;;;;;;;;;8.80;99.90;;;;;;5070808;28;19931;-77
2023/05/06 03:37:52;;;;;;;;;;;8.80;99.90;;;;;;5039787;28;19925;-76
2023/05/06 03:40:17;;;;;;;;;;;8.80;99.90;;;;;;5071914;28;20346;-77
2023/05/06 03:42:43;;;;;;;;;;;8.70;99.90;;;;;;5069696;28;19929;-77
2023/05/06 03:45:09;;;;;;;;;;;8.70;99.90;;;;;;5087300;28;19928;-77
2023/05/06 03:47:34;;;;;;;;;;;8.60;99.90;;;;;;5071777;28;19936;-77
2023/05/06 03:50:00;;;;;;;;;;;8.60;99.90;;;;;;5089701;28;19966;-77
2023/05/06 03:52:26;;;;;;;;;;;8.50;99.90;;;;;;5055347;28;19930;-77
2023/05/06 03:54:51;;;;;;;;;;;8.40;99.90;;;;;;5071123;28;19932;-76
2023/05/06 03:57:17;;;;;;;;;;;8.40;99.90;;;;;;5087916;28;19925;-76
2023/05/06 03:59:42;;;;;;;;;;;8.40;99.90;;;;;;5089852;28;20402;-76
2023/05/06 04:02:08;;;;;;;;;;;8.40;99.90;;;;;;5071538;28;19946;-76
2023/05/06 04:04:33;;;;;;;;;;;8.40;99.90;;;;;;5070525;28;19931;-76
2023/05/06 04:06:59;;;;;;;;;;;8.40;99.90;;;;;;5085378;28;19979;-76
2023/05/06 04:09:25;;;;;;;;;;;8.50;99.90;;;;;;5068715;28;19935;-77
2023/05/06 04:11:51;;;;;;;;;;;8.50;99.90;;;;;;5105092;28;19924;-76
2023/05/06 04:14:16;;;;;;;;;;;8.60;99.90;;;;;;5054735;28;20002;-77
2023/05/06 04:16:42;;;;;;;;;;;8.60;99.90;;;;;;5088371;28;19964;-77
2023/05/06 04:19:07;;;;;;;;;;;8.70;99.90;;;;;;5071507;28;20601;-77
2023/05/06 04:21:33;;;;;;;;;;;8.70;99.90;;;;;;5044209;28;20282;-77
2023/05/06 04:23:58;;;;;;;;;;;8.70;99.90;;;;;;5061336;28;19947;-76
2023/05/06 04:26:24;;;;;;;;;;;8.80;99.90;;;;;;5094406;28;20647;-77
2023/05/06 04:28:50;;;;;;;;;;;8.80;99.90;;;;;;5062110;28;19928;-77
2023/05/06 04:31:16;;;;;;;;;;;8.90;99.90;;;;;;5076834;28;19925;-77
2023/05/06 04:33:41;;;;;;;;;;;9.00;99.90;;;;;;5077872;28;19925;-77
2023/05/06 04:36:07;;;;;;;;;;;9.00;99.90;;;;;;5060436;28;19933;-77
2023/05/06 04:38:34;;;;;;;;;;;9.10;99.90;;;;;;5076698;28;19928;-77
2023/05/06 04:41:00;;;;;;;;;;;9.10;99.90;;;;;;5077731;28;19935;-77
2023/05/06 04:43:28;;;;;;;;;;;9.20;99.90;;;;;;5076929;28;20374;-77
2023/05/06 04:45:54;;;;;;;;;;;9.20;99.90;;;;;;5061006;28;19935;-77
2023/05/06 04:48:23;;;;;;;;;;;9.20;99.90;;;;;;5091729;28;19925;-77
2023/05/06 04:50:49;;;;;;;;;;;9.20;99.90;;;;;;5073149;28;19928;-77
2023/05/06 04:53:14;;;;;;;;;;;9.30;99.90;;;;;;5070204;28;19935;-76
2023/05/06 04:55:40;;;;;;;;;;;9.30;99.90;;;;;;5037148;28;19930;-77
2023/05/06 04:58:06;;;;;;;;;;;9.40;99.90;;;;;;5047334;28;19924;-77
2023/05/06 05:00:32;;;;;;;;;;;9.50;99.90;;;;;;5070735;28;20398;-77
2023/05/06 05:02:57;;;;;;;;;;;9.50;99.90;;;;;;5070787;28;20029;-77
2023/05/06 05:05:23;;;;;;;;;;;9.60;99.90;;;;;;5088302;28;19928;-77
2023/05/06 05:07:49;;;;;;;;;;;9.70;99.90;;;;;;5071348;28;19936;-77
2023/05/06 05:10:14;;;;;;;;;;;9.80;99.90;;;;;;5069436;28;19952;-77
2023/05/06 05:12:40;;;;;;;;;;;9.80;99.90;;;;;;5087113;28;19925;-77
2023/05/06 05:15:06;;;;;;;;;;;10.00;99.90;;;;;;5071717;28;19928;-77
2023/05/06 05:17:31;;;;;;;;;;;10.00;99.90;;;;;;5070102;28;20059;-77
2023/05/06 05:19:57;;;;;;;;;;;10.10;99.90;;;;;;5068452;28;19952;-77
2023/05/06 05:22:22;;;;;;;;;;;10.20;99.90;;;;;;5057722;28;19978;-77
2023/05/06 05:24:48;;;;;;;;;;;10.20;99.90;;;;;;5032354;28;19924;-77
2023/05/06 05:27:14;;;;;;;;;;;10.30;99.90;;;;;;5093462;28;20326;-77
2023/05/06 05:29:39;;;;;;;;;;;10.40;99.90;;;;;;5059352;28;19959;-77
2023/05/06 05:32:05;;;;;;;;;;;10.50;99.90;;;;;;5093371;28;19925;-77
2023/05/06 05:34:30;;;;;;;;;;;10.60;99.90;;;;;;5093442;28;19928;-77
2023/05/06 05:36:57;;;;;;;;;;;10.80;99.90;;;;;;5077382;28;19925;-77
2023/05/06 05:39:22;;;;;;;;;;;10.90;99.90;;;;;;5093113;28;19989;-77
2023/05/06 05:41:48;;;;;;;;;;;11.00;99.90;;;;;;5076817;28;20363;-77
2023/05/06 05:44:14;;;;;;;;;;;11.30;99.90;;;;;;5076210;28;19928;-77
2023/05/06 05:46:40;;;;;;;;;;;11.40;99.90;;;;;;5060192;28;19928;-77
2023/05/06 05:49:05;;;;;;;;;;;11.60;99.90;;;;;;5093826;28;19947;-77
2023/05/06 05:51:31;;;;;;;;;;;11.60;99.90;;;;;;5054982;28;19924;-77
2023/05/06 05:53:57;;;;;;;;;;;11.70;99.90;;;;;;5053076;28;19925;-77
2023/05/06 05:56:22;;;;;;;;;;;12.00;99.90;;;;;;5069492;28;20303;-77
2023/05/06 05:58:48;;;;;;;;;;;12.50;99.90;;;;;;5086966;28;19975;-77
2023/05/06 06:01:13;;;;;;;;;;;12.90;99.90;;;;;;5086730;28;19929;-78
2023/05/06 06:03:39;;;;;;;;;;;13.10;99.90;;;;;;5073615;28;19928;-77
2023/05/06 06:06:05;;;;;;;;;;;13.30;99.90;;;;;;5058493;28;20457;-77
2023/05/06 06:08:32;;;;;;;;;;;13.40;99.90;;;;;;5073688;28;19924;-77
2023/05/06 06:10:57;;;;;;;;;;;13.50;99.90;;;;;;5090195;28;20023;-78
2023/05/06 06:13:23;;;;;;;;;;;13.40;99.90;;;;;;5058796;28;20399;-77
2023/05/06 06:15:49;;;;;;;;;;;13.30;99.90;;;;;;5072493;28;20295;-78
2023/05/06 06:18:14;;;;;;;;;;;13.20;99.90;;;;;;5072657;28;20009;-77
2023/05/06 06:20:40;;;;;;;;;;;13.20;99.90;;;;;;5077141;28;19931;-78
2023/05/06 06:23:06;;;;;;;;;;;13.20;99.90;;;;;;5089826;28;19928;-78
2023/05/06 06:25:31;;;;;;;;;;;13.10;99.90;;;;;;5073784;28;21830;-78
2023/05/06 06:27:57;;;;;;;;;;;13.00;99.90;;;;;;5057323;28;19951;-78
2023/05/06 06:30:22;;;;;;;;;;;13.00;99.90;;;;;;5073102;28;19947;-78
2023/05/06 06:32:49;;;;;;;;;;;12.90;99.90;;;;;;5072360;28;19924;-78
2023/05/06 06:35:15;;;;;;;;;;;12.90;99.90;;;;;;5074098;28;19928;-77
2023/05/06 06:37:40;;;;;;;;;;;12.90;99.90;;;;;;5071659;28;19935;-77
2023/05/06 06:40:06;;;;;;;;;;;12.90;99.90;;;;;;5069519;28;19993;-77
2023/05/06 06:42:32;;;;;;;;;;;13.00;99.90;;;;;;5072793;28;19989;-77
2023/05/06 06:44:57;;;;;;;;;;;13.00;99.90;;;;;;5038922;28;19925;-77
2023/05/06 06:47:23;;;;;;;;;;;13.10;99.90;;;;;;5073035;28;19964;-77
2023/05/06 06:49:48;;;;;;;;;;;13.20;99.90;;;;;;5057329;28;19935;-78
2023/05/06 06:52:14;;;;;;;;;;;13.30;99.90;;;;;;5070360;28;20395;-77
2023/05/06 06:54:39;;;;;;;;;;;13.40;99.90;;;;;;5047825;28;19924;-78
2023/05/06 06:57:05;;;;;;;;;;;13.50;99.90;;;;;;5084068;28;20023;-77
2023/05/06 06:59:31;;;;;;;;;;;13.70;99.90;;;;;;5073090;28;19924;-77
2023/05/06 07:01:56;;;;;;;;;;;14.20;99.90;;;;;;5071387;28;19931;-77
2023/05/06 07:04:23;;;;;;;;;;;14.70;99.90;;;;;;5055274;28;19924;-78
2023/05/06 07:06:49;;;;;;;;;;;15.10;99.90;;;;;;5055266;28;19935;-78
2023/05/06 07:09:15;;;;;;;;;;;15.40;99.90;;;;;;5070798;28;19932;-78
2023/05/06 07:11:40;;;;;;;;;;;15.70;99.90;;;;;;5072680;28;20398;-78
2023/05/06 07:14:06;;;;;;;;;;;15.90;99.90;;;;;;5068026;28;19924;-78
2023/05/06 07:16:31;;;;;;;;;;;16.20;99.90;;;;;;5090115;28;19925;-78
2023/05/06 07:18:57;;;;;;;;;;;16.50;99.90;;;;;;5072009;28;20395;-78
2023/05/06 07:21:23;;;;;;;;;;;16.80;99.90;;;;;;5088731;28;19932;-79
2023/05/06 07:23:48;;;;;;;;;;;17.20;99.90;;;;;;5072782;28;20412;-79
2023/05/06 07:26:14;;;;;;;;;;;17.70;99.90;;;;;;5071975;28;20537;-79
2023/05/06 07:28:40;;;;;;;;;;;18.10;99.90;;;;;;5056775;28;20442;-79
2023/05/06 07:31:05;;;;;;;;;;;18.60;99.90;;;;;;5089095;28;19966;-79
2023/05/06 07:33:31;;;;;;;;;;;18.90;99.90;;;;;;5056117;28;19947;-79
2023/05/06 07:35:56;;;;;;;;;;;19.10;99.90;;;;;;5054044;28;19986;-79
2023/05/06 07:38:22;;;;;;;;;;;19.30;99.90;;;;;;5069921;28;19924;-79
2023/05/06 07:40:48;;;;;;;;;;;19.60;99.90;;;;;;5068459;28;19933;-84
2023/05/06 07:43:14;;;;;;;;;;;19.70;99.90;;;;;;5055127;28;19928;-84
2023/05/06 07:45:40;;;;;;;;;;;19.90;99.90;;;;;;5071887;28;20023;-85
2023/05/06 07:48:05;;;;;;;;;;;20.10;99.90;;;;;;5046400;28;19936;-84
2023/05/06 07:50:31;;;;;;;;;;;20.30;99.90;;;;;;5092275;28;19947;-84
2023/05/06 07:52:56;;;;;;;;;;;20.50;99.90;;;;;;5070900;28;20023;-84
2023/05/06 07:55:22;;;;;;;;;;;20.60;99.90;;;;;;5070522;28;20030;-84
2023/05/06 07:57:48;;;;;;;;;;;20.60;99.90;;;;;;5038172;28;19936;-84
2023/05/06 08:00:14;;;;;;;;;;;20.50;99.90;;;;;;5068766;28;19935;-84
2023/05/06 08:02:42;;;;;;;;;;;20.60;99.90;;;;;;5084871;28;19974;-84
2023/05/06 08:05:09;;;;;;;;;;;20.60;99.90;;;;;;5079018;28;19925;-84
2023/05/06 08:07:35;;;;;;;;;;;20.50;99.90;;;;;;5093982;28;19928;-84
2023/05/06 08:10:01;;;;;;;;;;;20.10;99.90;;;;;;5043996;28;19932;-84
2023/05/06 08:12:27;;;;;;;;;;;19.70;99.90;;;;;;5033823;28;20833;-79
2023/05/06 08:14:53;;;;;;;;;;;19.40;99.90;;;;;;5109371;28;19928;-79
2023/05/06 08:17:19;;;;;;;;;;;19.50;99.90;;;;;;5093416;28;19924;-79
2023/05/06 08:19:45;;;;;;;;;;;19.70;99.90;;;;;;5091110;28;19959;-79
2023/05/06 08:22:11;;;;;;;;;;;19.90;99.90;;;;;;5093467;28;19925;-79
2023/05/06 08:24:36;;;;;;;;;;;20.30;99.90;;;;;;5072576;28;19924;-79
2023/05/06 08:27:02;;;;;;;;;;;20.60;99.90;;;;;;5069335;28;20429;-79
2023/05/06 08:29:27;;;;;;;;;;;20.90;99.90;;;;;;5087357;28;19996;-79
2023/05/06 08:31:53;;;;;;;;;;;21.00;99.90;;;;;;5089320;28;19928;-79
2023/05/06 08:34:20;;;;;;;;;;;21.20;99.90;;;;;;5041477;28;19969;-80
2023/05/06 08:36:46;;;;;;;;;;;21.30;99.90;;;;;;5081872;28;19932;-79
2023/05/06 08:39:13;;;;;;;;;;;21.40;99.90;;;;;;5056969;28;19931;-80
2023/05/06 08:41:39;;;;;;;;;;;21.50;99.90;;;;;;5064702;28;19950;-80
2023/05/06 08:44:06;;;;;;;;;;;21.60;99.90;;;;;;5091136;28;19933;-80
2023/05/06 08:46:32;;;;;;;;;;;21.80;99.90;;;;;;5086815;28;19924;-80
2023/05/06 08:48:57;;;;;;;;;;;21.80;99.90;;;;;;5075762;28;19931;-78
2023/05/06 08:51:26;;;;;;;;;;;21.90;99.90;;;;;;5060282;28;19924;-79
2023/05/06 08:53:53;;;;;;;;;;;21.90;99.90;;;;;;5050567;28;19929;-80
2023/05/06 08:56:23;;;;;;;;;;;22.00;99.90;;;;;;5056645;28;20010;-80
2023/05/06 08:58:50;;;;;;;;;;;22.10;99.90;;;;;;5048783;28;19925;-80
2023/05/06 09:01:16;;;;;;;;;;;22.20;99.90;;;;;;5093587;28;19925;-81
2023/05/06 09:03:42;;;;;;;;;;;22.20;99.90;;;;;;5093960;28;19935;-80
2023/05/06 09:06:08;;;;;;;;;;;22.10;99.90;;;;;;5060760;28;19935;-80
2023/05/06 09:08:35;;;;;;;;;;;22.10;99.90;;;;;;5076679;28;19964;-80
2023/05/06 09:11:00;;;;;;;;;;;22.10;99.90;;;;;;5076150;28;20485;-80
2023/05/06 09:13:26;;;;;;;;;;;22.30;99.90;;;;;;5077256;28;19946;-81
2023/05/06 09:15:52;;;;;;;;;;;22.40;99.90;;;;;;5077824;28;19939;-80
2023/05/06 09:18:18;;;;;;;;;;;22.60;99.90;;;;;;5075618;28;19925;-80
2023/05/06 09:20:44;;;;;;;;;;;22.50;99.90;;;;;;5077416;28;20007;-80
2023/05/06 09:23:10;;;;;;;;;;;22.50;99.90;;;;;;5093663;28;19931;-80
2023/05/06 09:25:36;;;;;;;;;;;22.50;99.90;;;;;;5072956;28;19936;-80
2023/05/06 09:28:04;;;;;;;;;;;22.40;99.90;;;;;;5093604;28;19928;-80
2023/05/06 09:30:29;;;;;;;;;;;22.30;99.90;;;;;;5076906;28;19924;-80
2023/05/06 09:32:55;;;;;;;;;;;22.40;99.90;;;;;;5077274;28;20015;-80
2023/05/06 09:35:25;;;;;;;;;;;22.40;99.90;;;;;;5062702;28;19924;-80
2023/05/06 09:37:51;;;;;;;;;;;22.70;99.90;;;;;;5064590;28;19924;-80
2023/05/06 09:40:16;;;;;;;;;;;22.90;99.90;;;;;;5077907;28;20002;-80
2023/05/06 09:42:42;;;;;;;;;;;23.00;99.90;;;;;;5077400;28;19931;-81
2023/05/06 09:45:08;;;;;;;;;;;23.20;96.40;;;;;;5097768;28;19936;-80
2023/05/06 09:47:34;;;;;;;;;;;23.30;99.90;;;;;;5097429;28;19978;-80
2023/05/06 09:50:00;;;;;;;;;;;23.40;99.90;;;;;;5095967;28;19924;-81
2023/05/06 09:52:26;;;;;;;;;;;23.70;99.90;;;;;;5097381;28;19928;-81
2023/05/06 09:54:52;;;;;;;;;;;23.60;99.60;;;;;;5064628;28;19928;-81
2023/05/06 09:57:18;;;;;;;;;;;23.30;99.90;;;;;;5080650;28;19931;-81
2023/05/06 09:59:44;;;;;;;;;;;23.10;99.90;;;;;;5095004;28;20019;-81
2023/05/06 10:02:11;;;;;;;;;;;23.00;99.90;;;;;;5063491;28;19924;-81
2023/05/06 10:04:39;;;;;;;;;;;23.10;99.90;;;;;;5063507;28;19924;-81
2023/05/06 10:07:06;;;;;;;;;;;22.90;99.90;;;;;;5097543;28;19928;-81
2023/05/06 10:09:31;;;;;;;;;;;22.60;99.90;;;;;;5096767;28;19960;-81
2023/05/06 10:11:57;;;;;;;;;;;22.30;99.90;;;;;;5078839;28;19931;-81
2023/05/06 10:14:24;;;;;;;;;;;22.10;99.90;;;;;;5061323;28;19925;-80
2023/05/06 10:16:50;;;;;;;;;;;21.80;99.90;;;;;;5071843;28;19925;-81
2023/05/06 10:19:17;;;;;;;;;;;21.80;99.90;;;;;;5097023;28;20494;-81
2023/05/06 10:21:45;;;;;;;;;;;21.80;99.90;;;;;;5095779;28;19935;-81
2023/05/06 10:24:12;;;;;;;;;;;21.70;99.90;;;;;;5097505;28;19928;-81
2023/05/06 10:26:38;;;;;;;;;;;21.60;99.90;;;;;;5096421;28;19925;-80
2023/05/06 10:29:06;;;;;;;;;;;21.50;99.90;;;;;;5097290;28;19924;-81
2023/05/06 10:31:32;;;;;;;;;;;21.70;99.90;;;;;;5077025;28;19931;-80
2023/05/06 10:34:01;;;;;;;;;;;22.00;99.90;;;;;;5072880;28;20007;-81
2023/05/06 10:36:28;;;;;;;;;;;22.00;99.90;;;;;;5096608;28;19929;-81
2023/05/06 10:38:55;;;;;;;;;;;21.90;99.90;;;;;;5096337;28;19979;-81
2023/05/06 10:41:26;;;;;;;;;;;21.70;99.90;;;;;;5096880;28;19993;-80
2023/05/06 10:44:01;;;;;;;;;;;21.70;99.90;;;;;;5090520;28;20328;-80
2023/05/06 10:46:27;;;;;;;;;;;21.70;99.90;;;;;;5078845;28;19935;-81
2023/05/06 10:49:05;;;;;;;;;;;21.70;99.90;;;;;;5094974;28;20387;-81
2023/05/06 10:51:31;;;;;;;;;;;21.60;99.90;;;;;;5079014;28;20540;-81
2023/05/06 10:53:57;;;;;;;;;;;21.50;99.90;;;;;;5069717;28;19925;-81
2023/05/06 10:56:23;;;;;;;;;;;21.40;99.90;;;;;;5074735;28;19931;-81
2023/05/06 10:58:49;;;;;;;;;;;21.40;99.90;;;;;;5096903;28;19974;-80
2023/05/06 11:01:15;;;;;;;;;;;21.50;99.90;;;;;;5095909;28;19933;-81
2023/05/06 11:03:43;;;;;;;;;;;21.50;99.90;;;;;;5060362;28;20177;-82
2023/05/06 11:06:09;;;;;;;;;;;21.50;99.90;;;;;;5104937;28;20022;-81
2023/05/06 11:08:35;;;;;;;;;;;21.50;99.90;;;;;;5078665;28;19982;-81
2023/05/06 11:11:03;;;;;;;;;;;21.50;99.90;;;;;;5090379;28;19991;-81
2023/05/06 11:13:33;;;;;;;;;;;21.50;99.90;;;;;;5071442;28;20414;-81
2023/05/06 11:16:00;;;;;;;;;;;21.40;99.90;;;;;;5070515;28;19924;-80
2023/05/06 11:18:35;;;;;;;;;;;21.20;99.90;;;;;;5075589;28;20380;-80
2023/05/06 11:21:01;;;;;;;;;;;21.10;99.90;;;;;;5088027;28;19928;-80
2023/05/06 11:23:48;;;;;;;;;;;20.90;99.90;;;;;;5074665;28;20004;-80
2023/05/06 11:26:14;;;;;;;;;;;20.60;99.90;;;;;;5057870;28;19925;-80
2023/05/06 11:28:42;;;;;;;;;;;20.50;99.90;;;;;;5059286;28;19992;-80
2023/05/06 11:31:08;;;;;;;;;;;20.50;99.90;;;;;;5090247;28;19959;-80
2023/05/06 11:33:34;;;;;;;;;;;20.60;99.90;;;;;;5073626;28;19925;-80
2023/05/06 11:36:00;;;;;;;;;;;20.90;99.90;;;;;;5106343;28;19929;-79
2023/05/06 11:38:38;;;;;;;;;;;21.30;99.90;;;;;;5089462;28;19932;-79
2023/05/06 11:41:03;;;;;;;;;;;21.60;99.90;;;;;;5089160;28;19924;-79
2023/05/06 11:43:29;;;;;;;;;;;22.00;99.00;;;;;;5075413;28;20003;-79
2023/05/06 11:45:55;;;;;;;;;;;22.10;99.90;;;;;;5091797;28;20295;-79
2023/05/06 11:48:20;;;;;;;;;;;22.10;99.90;;;;;;5075764;28;19924;-80
2023/05/06 11:50:47;;;;;;;;;;;22.10;98.80;;;;;;5088711;28;19936;-80
2023/05/06 11:53:15;;;;;;;;;;;22.10;99.90;;;;;;5058029;28;19924;-81
2023/05/06 11:55:41;;;;;;;;;;;22.10;99.90;;;;;;5091553;28;20016;-80
2023/05/06 11:58:11;;;;;;;;;;;22.20;98.30;;;;;;5090745;28;19995;-79
2023/05/06 12:00:43;;;;;;;;;;;22.10;99.00;;;;;;5058093;28;19924;-80
2023/05/06 12:03:13;;;;;;;;;;;21.90;98.30;;;;;;5059762;28;20003;-80
2023/05/06 12:05:40;;;;;;;;;;;21.70;98.70;;;;;;5057898;28;19960;-80
2023/05/06 12:08:06;;;;;;;;;;;21.50;98.70;;;;;;5093127;28;19924;-80
2023/05/06 12:10:32;;;;;;;;;;;21.30;99.80;;;;;;5029632;28;19982;-80
2023/05/06 12:12:57;;;;;;;;;;;21.20;99.90;;;;;;5092286;28;19946;-78
2023/05/06 12:15:23;;;;;;;;;;;21.10;99.90;;;;;;5072690;28;19975;-78
2023/05/06 12:17:49;;;;;;;;;;;21.10;99.90;;;;;;5072819;28;19925;-79
2023/05/06 12:20:14;;;;;;;;;;;21.10;99.90;;;;;;5092014;28;20405;-79
2023/05/06 12:22:40;;;;;;;;;;;21.10;99.90;;;;;;5072768;28;19982;-78
2023/05/06 12:25:13;;;;;;;;;;;21.20;99.90;;;;;;5065558;28;19924;-80
2023/05/06 12:27:38;;;;;;;;;;;21.30;99.40;;;;;;5092013;28;20303;-81
2023/05/06 12:30:07;;;;;;;;;;;21.40;99.90;;;;;;5090216;28;19936;-82
2023/05/06 12:32:33;;;;;;;;;;;21.50;99.90;;;;;;5076918;28;19935;-82
2023/05/06 12:35:04;;;;;;;;;;;21.50;99.90;;;;;;5088050;28;19971;-82
2023/05/06 12:37:30;;;;;;;;;;;21.40;99.00;;;;;;5070985;28;19980;-81
2023/05/06 12:39:56;;;;;;;;;;;21.30;98.80;;;;;;5093865;28;19931;-82
2023/05/06 12:42:22;;;;;;;;;;;21.20;99.60;;;;;;5092305;28;19939;-81
2023/05/06 12:44:48;;;;;;;;;;;21.20;99.90;;;;;;5076251;28;19925;-82
2023/05/06 12:47:24;;;;;;;;;;;21.20;98.60;;;;;;5075507;28;19924;-83
2023/05/06 12:49:49;;;;;;;;;;;21.20;97.90;;;;;;5072816;28;19935;-83
2023/05/06 12:52:16;;;;;;;;;;;21.20;98.70;;;;;;5093042;28;19929;-83
2023/05/06 12:54:42;;;;;;;;;;;21.20;98.60;;;;;;5061341;28;20354;-82
2023/05/06 12:57:07;;;;;;;;;;;21.10;98.40;;;;;;5094024;28;19924;-83
2023/05/06 12:59:34;;;;;;;;;;;21.20;99.90;;;;;;5089055;28;19995;-82
2023/05/06 13:02:00;;;;;;;;;;;21.40;99.10;;;;;;5075924;28;20442;-83
2023/05/06 13:04:26;;;;;;;;;;;21.50;99.70;;;;;;5075855;28;20388;-82
2023/05/06 13:06:51;;;;;;;;;;;21.60;98.60;;;;;;5094229;28;19924;-82
2023/05/06 13:09:17;;;;;;;;;;;21.70;98.20;;;;;;5091537;28;19956;-83
2023/05/06 13:11:43;;;;;;;;;;;21.90;96.70;;;;;;5083641;28;19925;-82
2023/05/06 13:14:09;;;;;;;;;;;21.90;98.50;;;;;;5100277;28;19924;-82
2023/05/06 13:16:34;;;;;;;;;;;21.70;96.60;;;;;;5066317;28;19928;-82
2023/05/06 13:19:01;;;;;;;;;;;21.40;96.70;;;;;;5081002;28;19954;-82
2023/05/06 13:21:26;;;;;;;;;;;21.10;95.00;;;;;;5077372;28;20008;-82
2023/05/06 13:23:52;;;;;;;;;;;20.90;96.60;;;;;;5078724;28;19996;-82
2023/05/06 13:26:17;;;;;;;;;;;20.80;97.40;;;;;;5077528;28;19944;-82
2023/05/06 13:28:43;;;;;;;;;;;20.70;97.20;;;;;;5043133;28;19924;-83
2023/05/06 13:31:09;;;;;;;;;;;20.70;98.90;;;;;;5093040;28;19951;-82
2023/05/06 13:33:34;;;;;;;;;;;20.80;98.10;;;;;;5079904;28;19928;-82
2023/05/06 13:36:00;;;;;;;;;;;20.90;98.40;;;;;;5047052;28;19931;-81
2023/05/06 13:38:26;;;;;;;;;;;20.80;99.20;;;;;;5075525;28;19935;-82
2023/05/06 13:40:52;;;;;;;;;;;20.80;98.30;;;;;;5063100;28;19932;-82
2023/05/06 13:43:23;;;;;;;;;;;20.90;99.90;;;;;;5081394;28;19925;-82
2023/05/06 13:45:49;;;;;;;;;;;20.90;99.60;;;;;;5036630;28;19984;-83
2023/05/06 13:48:16;;;;;;;;;;;20.80;99.90;;;;;;5098885;28;20370;-82
2023/05/06 13:50:42;;;;;;;;;;;20.90;98.90;;;;;;5082456;28;19928;-82
2023/05/06 13:53:07;;;;;;;;;;;20.90;99.60;;;;;;5098667;28;19931;-82
2023/05/06 13:55:33;;;;;;;;;;;20.90;99.70;;;;;;5079781;28;19928;-82
2023/05/06 13:57:59;;;;;;;;;;;20.90;99.60;;;;;;5078505;28;19932;-82
2023/05/06 14:00:24;;;;;;;;;;;20.80;99.40;;;;;;5083010;28;19964;-82
2023/05/06 14:02:50;;;;;;;;;;;20.70;99.80;;;;;;5083672;28;19929;-82
2023/05/06 14:05:15;;;;;;;;;;;20.60;99.90;;;;;;5081030;28;19924;-81
2023/05/06 14:07:41;;;;;;;;;;;20.50;99.10;;;;;;5049581;28;19924;-81
2023/05/06 14:10:07;;;;;;;;;;;20.40;99.90;;;;;;5049547;28;19925;-81
2023/05/06 14:12:33;;;;;;;;;;;20.30;99.90;;;;;;5086422;28;20051;-82
2023/05/06 14:14:59;;;;;;;;;;;20.30;99.90;;;;;;5075857;28;19995;-83
2023/05/06 14:17:25;;;;;;;;;;;20.20;99.90;;;;;;5099462;28;21465;-81